Time;durP1;ratioP1;P1;durP2;ratioP2;P2;SDS_P1;SDS_P2;PMS_P1;PMS_P2;Temp;Humidity;BMP_temperature;BMP_pressure;BME280_temperature;BME280_humidity;BME280_pressure;Samples;Min_cycle;Max_cycle;Signal;HPM_P1;HPM_P2
2023/01/18 00:00:39;;;;;;;;;;;;;;;11.34;55.93;96645.13;4476233;31;32936;-69
2023/01/18 00:03:10;;;;;;;;;;;;;;;11.37;55.68;96638.53;4479560;32;33543;-65
2023/01/18 00:05:39;;;;;;;;;;;;;;;11.29;56.09;96630.66;4477344;32;34391;-67
2023/01/18 00:08:11;;;;;;;;;;;;;;;11.13;56.56;96619.19;4468965;31;33278;-67
2023/01/18 00:10:38;;;;;;;;;;;;;;;11.23;56.34;96602.78;4469961;32;33131;-64
2023/01/18 00:13:05;;;;;;;;;;;;;;;10.68;57.88;96609.78;4468124;31;35052;-69
2023/01/18 00:15:33;;;;;;;;;;;;;;;11.04;56.87;96604.31;4457342;32;34183;-65
2023/01/18 00:18:01;;;;;;;;;;;;;;;10.80;57.46;96589.50;4471830;32;35236;-65
2023/01/18 00:20:28;;;;;;;;;;;;;;;10.99;57.02;96587.19;4474411;31;33046;-67
2023/01/18 00:22:57;;;;;;;;;;;;;;;10.83;57.36;96577.59;4457950;32;34009;-65
2023/01/18 00:25:25;;;;;;;;;;;;;;;10.98;56.84;96582.84;4464366;32;33927;-65
2023/01/18 00:27:52;;;;;;;;;;;;;;;10.71;57.47;96596.00;4474068;32;34879;-66
2023/01/18 00:30:21;;;;;;;;;;;;;;;10.34;58.55;96621.16;4474891;32;33166;-65
2023/01/18 00:32:49;;;;;;;;;;;;;;;10.18;59.12;96632.87;4475253;32;35210;-65
2023/01/18 00:35:20;;;;;;;;;;;;;;;10.59;57.61;96653.69;4461371;32;34328;-67
2023/01/18 00:37:49;;;;;;;;;;;;;;;10.68;56.96;96677.47;4471054;32;33945;-65
2023/01/18 00:40:16;;;;;;;;;;;;;;;10.70;56.90;96718.22;4472902;32;32219;-66
2023/01/18 00:45:30;;;;;;;;;;;;;;;10.97;56.69;96739.91;4468584;32;34584;-67
2023/01/18 00:47:57;;;;;;;;;;;;;;;11.01;56.43;96735.84;4476288;32;34109;-68
2023/01/18 00:50:24;;;;;;;;;;;;;;;11.07;56.63;96740.41;4470906;32;34106;-69
2023/01/18 00:52:55;;;;;;;;;;;;;;;10.87;57.58;96745.56;4472377;31;35159;-66
2023/01/18 00:55:23;;;;;;;;;;;;;;;10.55;59.50;96746.84;4466636;32;35561;-69
2023/01/18 00:57:50;;;;;;;;;;;;;;;9.99;62.59;96741.19;4478341;31;37058;-69
2023/01/18 01:00:18;;;;;;;;;;;;;;;10.28;62.25;96735.00;4475277;32;32788;-67
2023/01/18 01:02:45;;;;;;;;;;;;;;;9.99;63.38;96731.31;4473070;32;35281;-67
2023/01/18 01:08:15;;;;;;;;;;;;;;;9.02;67.71;96738.37;4468376;32;33824;-67
2023/01/18 01:10:44;;;;;;;;;;;;;;;9.17;67.37;96725.94;4471573;31;33734;-66
2023/01/18 01:27:07;;;;;;;;;;;;;;;11.17;60.61;96686.56;4466720;32;34225;-66
2023/01/18 01:29:34;;;;;;;;;;;;;;;11.18;60.43;96689.06;4465859;32;34077;-66
2023/01/18 01:32:02;;;;;;;;;;;;;;;11.18;60.65;96699.75;4467873;32;33060;-66
2023/01/18 01:34:29;;;;;;;;;;;;;;;11.36;59.23;96717.19;4467151;32;35598;-66
2023/01/18 01:36:56;;;;;;;;;;;;;;;11.35;58.64;96727.09;4474540;32;37253;-67
2023/01/18 01:39:24;;;;;;;;;;;;;;;11.03;59.83;96728.44;4471703;32;35397;-68
2023/01/18 01:41:51;;;;;;;;;;;;;;;11.06;59.91;96736.09;4474527;32;33396;-68
2023/01/18 01:44:27;;;;;;;;;;;;;;;10.90;60.53;96731.81;4477121;32;32780;-66
2023/01/18 01:47:03;;;;;;;;;;;;;;;10.54;62.14;96734.50;4473972;31;34359;-69
2023/01/18 01:49:32;;;;;;;;;;;;;;;10.09;63.51;96731.03;4474162;32;32617;-67
2023/01/18 01:52:04;;;;;;;;;;;;;;;10.13;63.38;96755.53;4452958;32;33051;-66
2023/01/18 01:54:38;;;;;;;;;;;;;;;10.63;61.93;96749.44;4456470;32;33852;-68
2023/01/18 01:57:09;;;;;;;;;;;;;;;10.68;62.00;96748.84;4472304;31;35901;-66
2023/01/18 01:59:38;;;;;;;;;;;;;;;9.60;65.49;96736.91;4467648;32;34294;-68
2023/01/18 02:02:06;;;;;;;;;;;;;;;9.79;64.94;96732.84;4478040;32;33192;-67
2023/01/18 02:04:33;;;;;;;;;;;;;;;10.19;63.63;96736.09;4469025;32;34434;-66
2023/01/18 02:07:00;;;;;;;;;;;;;;;10.22;63.31;96743.75;4465090;32;33989;-68
2023/01/18 02:09:28;;;;;;;;;;;;;;;10.61;61.99;96737.25;4475631;32;34591;-66
2023/01/18 02:11:55;;;;;;;;;;;;;;;10.51;62.21;96748.25;4476949;32;34010;-69
2023/01/18 02:14:24;;;;;;;;;;;;;;;10.44;62.06;96764.22;4467203;32;34369;-66
2023/01/18 02:16:54;;;;;;;;;;;;;;;9.99;63.54;96779.41;4470048;32;34985;-65
2023/01/18 02:19:47;;;;;;;;;;;;;;;9.45;65.11;96786.78;4476988;32;34733;-69
2023/01/18 02:22:33;;;;;;;;;;;;;;;9.54;64.95;96801.72;4463773;32;33436;-67
2023/01/18 02:25:00;;;;;;;;;;;;;;;7.99;70.30;96802.50;4476148;32;32778;-66
2023/01/18 02:27:32;;;;;;;;;;;;;;;7.68;71.89;96792.59;4466602;32;34188;-66
2023/01/18 02:30:08;;;;;;;;;;;;;;;7.74;72.31;96797.25;4452278;32;34132;-67
2023/01/18 02:32:54;;;;;;;;;;;;;;;7.94;71.29;96793.19;4465412;32;33237;-67
2023/01/18 02:35:29;;;;;;;;;;;;;;;7.62;72.12;96794.09;4475291;32;34792;-70
2023/01/18 02:38:04;;;;;;;;;;;;;;;7.54;73.34;96798.56;4466495;32;32775;-66
2023/01/18 02:40:37;;;;;;;;;;;;;;;8.50;69.10;96781.72;4457248;32;33688;-67
2023/01/18 02:48:39;;;;;;;;;;;;;;;9.09;66.11;96777.53;4469605;32;34524;-67
2023/01/18 02:51:06;;;;;;;;;;;;;;;8.50;67.90;96790.53;4452980;32;34665;-68
2023/01/18 02:53:36;;;;;;;;;;;;;;;8.54;67.93;96793.66;4469082;32;33245;-65
2023/01/18 02:56:06;;;;;;;;;;;;;;;8.04;69.55;96800.16;4478303;32;34354;-68
2023/01/18 02:58:34;;;;;;;;;;;;;;;8.70;67.44;96790.97;4468310;32;33838;-66
2023/01/18 03:01:03;;;;;;;;;;;;;;;8.91;66.47;96779.66;4463817;32;35047;-66
2023/01/18 03:03:31;;;;;;;;;;;;;;;9.40;64.60;96767.78;4466731;32;33087;-66
2023/01/18 03:06:00;;;;;;;;;;;;;;;9.32;64.28;96782.84;4470581;32;34122;-69
2023/01/18 03:08:31;;;;;;;;;;;;;;;9.88;62.73;96777.16;4470688;32;34484;-66
2023/01/18 03:11:00;;;;;;;;;;;;;;;9.89;62.25;96784.19;4463901;32;34168;-66
2023/01/18 03:13:29;;;;;;;;;;;;;;;10.20;61.29;96785.84;4463443;32;33354;-66
2023/01/18 03:16:00;;;;;;;;;;;;;;;10.06;61.61;96770.66;4475759;31;33988;-65
2023/01/18 03:18:28;;;;;;;;;;;;;;;10.39;60.83;96761.25;4467464;32;34256;-66
2023/01/18 03:20:55;;;;;;;;;;;;;;;10.49;60.52;96766.31;4469362;32;33660;-66
2023/01/18 03:23:37;;;;;;;;;;;;;;;10.85;59.52;96765.50;4465992;32;34365;-66
2023/01/18 03:26:05;;;;;;;;;;;;;;;10.78;59.42;96749.38;4474448;32;33930;-66
2023/01/18 03:34:25;;;;;;;;;;;;;;;11.10;58.09;96763.31;4460334;32;33257;-66
2023/01/18 03:36:52;;;;;;;;;;;;;;;10.94;58.52;96742.97;4462261;32;33920;-69
2023/01/18 03:39:23;;;;;;;;;;;;;;;11.10;58.14;96752.59;4457883;32;33667;-66
2023/01/18 03:41:51;;;;;;;;;;;;;;;11.30;57.62;96748.28;4473479;32;34543;-65
2023/01/18 03:44:24;;;;;;;;;;;;;;;11.61;56.53;96741.72;4455299;32;33142;-66
2023/01/18 03:46:51;;;;;;;;;;;;;;;11.64;56.08;96739.47;4466315;32;34273;-69
2023/01/18 03:49:19;;;;;;;;;;;;;;;11.60;55.99;96743.56;4478853;32;34052;-68
2023/01/18 03:51:48;;;;;;;;;;;;;;;11.31;56.37;96738.37;4467326;32;32192;-68
2023/01/18 03:54:21;;;;;;;;;;;;;;;11.45;56.24;96747.34;4451384;32;32946;-67
2023/01/18 03:57:01;;;;;;;;;;;;;;;11.41;56.48;96753.09;4461883;32;34841;-64
2023/01/18 03:59:30;;;;;;;;;;;;;;;11.41;56.48;96757.62;4474005;31;35145;-67
2023/01/18 04:01:58;;;;;;;;;;;;;;;10.86;58.39;96759.97;4460816;32;34592;-68
2023/01/18 04:04:25;;;;;;;;;;;;;;;11.48;56.39;96774.56;4482823;32;33901;-69
2023/01/18 04:06:53;;;;;;;;;;;;;;;11.19;57.09;96786.25;4467969;32;33755;-67
2023/01/18 04:09:20;;;;;;;;;;;;;;;11.00;57.55;96786.88;4481028;32;35412;-65
2023/01/18 04:11:47;;;;;;;;;;;;;;;11.36;56.69;96793.03;4476133;32;33847;-66
2023/01/18 04:14:14;;;;;;;;;;;;;;;11.63;55.73;96782.53;4470401;32;32899;-66
2023/01/18 04:16:42;;;;;;;;;;;;;;;11.49;56.57;96773.53;4465468;32;34266;-66
2023/01/18 04:19:10;;;;;;;;;;;;;;;11.59;56.40;96774.06;4469213;32;33950;-65
2023/01/18 04:21:40;;;;;;;;;;;;;;;11.65;56.14;96751.00;4468078;32;33888;-65
2023/01/18 04:24:07;;;;;;;;;;;;;;;11.38;57.17;96747.31;4472697;32;32152;-67
2023/01/18 04:26:35;;;;;;;;;;;;;;;11.66;56.34;96756.19;4477654;32;34089;-66
2023/01/18 04:29:02;;;;;;;;;;;;;;;11.77;55.94;96760.19;4467473;32;35372;-66
2023/01/18 04:31:30;;;;;;;;;;;;;;;11.81;56.09;96750.75;4470027;32;34521;-65
2023/01/18 04:33:57;;;;;;;;;;;;;;;11.64;56.24;96774.31;4466602;32;33618;-66
2023/01/18 04:36:24;;;;;;;;;;;;;;;11.16;57.38;96797.34;4469389;32;34664;-66
2023/01/18 04:38:52;;;;;;;;;;;;;;;11.57;56.05;96792.19;4465013;32;34203;-68
2023/01/18 04:41:20;;;;;;;;;;;;;;;11.23;56.65;96810.78;4469451;32;33861;-67
2023/01/18 04:43:47;;;;;;;;;;;;;;;11.39;56.74;96814.03;4465872;32;33174;-66
2023/01/18 04:46:14;;;;;;;;;;;;;;;11.70;55.62;96815.56;4468478;32;33918;-66
2023/01/18 04:48:42;;;;;;;;;;;;;;;11.64;56.17;96798.41;4469893;32;35584;-67
2023/01/18 04:51:10;;;;;;;;;;;;;;;11.76;56.29;96804.09;4478436;32;32816;-66
2023/01/18 04:53:38;;;;;;;;;;;;;;;11.87;55.77;96808.94;4455727;32;34096;-68
2023/01/18 04:56:06;;;;;;;;;;;;;;;11.88;55.60;96813.28;4470779;32;32871;-66
2023/01/18 04:58:33;;;;;;;;;;;;;;;11.83;55.84;96821.03;4470962;32;35486;-67
2023/01/18 05:01:01;;;;;;;;;;;;;;;11.86;55.62;96834.09;4475388;32;35235;-67
2023/01/18 05:03:29;;;;;;;;;;;;;;;11.86;55.79;96843.97;4467514;32;33214;-67
2023/01/18 05:05:56;;;;;;;;;;;;;;;11.69;55.96;96854.09;4470821;32;34890;-67
2023/01/18 05:08:23;;;;;;;;;;;;;;;11.72;55.87;96855.56;4468520;32;33834;-69
2023/01/18 05:10:51;;;;;;;;;;;;;;;11.59;55.65;96869.69;4471342;32;33898;-68
2023/01/18 05:13:18;;;;;;;;;;;;;;;11.12;57.00;96881.72;4478181;31;33950;-70
2023/01/18 05:15:45;;;;;;;;;;;;;;;11.11;57.10;96883.56;4476256;32;35034;-69
2023/01/18 05:18:12;;;;;;;;;;;;;;;11.40;56.00;96880.00;4460554;32;35549;-69
2023/01/18 05:20:40;;;;;;;;;;;;;;;11.13;56.74;96886.06;4472694;32;32830;-67
2023/01/18 05:23:09;;;;;;;;;;;;;;;11.21;56.83;96885.97;4470415;32;31833;-69
2023/01/18 05:25:38;;;;;;;;;;;;;;;11.24;56.52;96887.44;4477681;32;32961;-69
2023/01/18 05:28:06;;;;;;;;;;;;;;;11.20;56.43;96889.63;4470146;32;33909;-68
2023/01/18 05:30:33;;;;;;;;;;;;;;;11.17;56.94;96895.34;4470280;32;35216;-68
2023/01/18 05:33:01;;;;;;;;;;;;;;;10.91;57.15;96895.88;4472444;32;34159;-70
2023/01/18 05:35:28;;;;;;;;;;;;;;;10.71;57.53;96891.09;4471522;32;34860;-68
2023/01/18 05:37:55;;;;;;;;;;;;;;;10.98;57.16;96883.41;4457903;32;34338;-70
2023/01/18 05:40:23;;;;;;;;;;;;;;;11.00;57.20;96883.22;4468857;32;34226;-68
2023/01/18 05:42:50;;;;;;;;;;;;;;;10.75;57.19;96864.78;4474802;31;32846;-69
2023/01/18 05:45:18;;;;;;;;;;;;;;;10.77;56.27;96873.47;4476759;32;35190;-68
2023/01/18 05:47:46;;;;;;;;;;;;;;;10.53;55.97;96866.56;4472070;32;34308;-68
2023/01/18 05:50:13;;;;;;;;;;;;;;;10.37;57.27;96854.22;4476319;32;33702;-66
2023/01/18 05:52:40;;;;;;;;;;;;;;;9.97;58.55;96823.34;4466942;32;33800;-68
2023/01/18 05:55:08;;;;;;;;;;;;;;;10.20;58.18;96829.44;4480068;31;34784;-69
2023/01/18 05:57:35;;;;;;;;;;;;;;;10.53;56.48;96845.19;4476714;32;33989;-69
2023/01/18 06:00:03;;;;;;;;;;;;;;;10.42;56.69;96842.94;4466984;32;33585;-68
2023/01/18 06:02:37;;;;;;;;;;;;;;;10.56;55.54;96836.78;4468930;32;34368;-68
2023/01/18 06:05:05;;;;;;;;;;;;;;;10.47;55.99;96833.38;4468652;32;34232;-68
2023/01/18 06:07:32;;;;;;;;;;;;;;;10.57;56.23;96827.75;4475699;32;34124;-68
2023/01/18 06:09:59;;;;;;;;;;;;;;;10.92;55.21;96839.50;4468024;31;34685;-67
2023/01/18 06:12:26;;;;;;;;;;;;;;;11.13;54.39;96846.72;4473791;31;32900;-67
2023/01/18 06:14:54;;;;;;;;;;;;;;;11.07;54.09;96876.09;4479075;32;34448;-67
2023/01/18 06:17:21;;;;;;;;;;;;;;;11.01;53.81;96879.53;4466160;32;33289;-68
2023/01/18 06:19:49;;;;;;;;;;;;;;;11.01;53.74;96875.03;4471690;32;34773;-68
2023/01/18 06:22:16;;;;;;;;;;;;;;;11.05;53.63;96887.00;4480107;32;32266;-67
2023/01/18 06:24:43;;;;;;;;;;;;;;;10.88;53.90;96878.38;4467576;32;37581;-67
2023/01/18 06:27:10;;;;;;;;;;;;;;;10.88;53.42;96869.47;4462586;32;34219;-69
2023/01/18 06:29:37;;;;;;;;;;;;;;;10.82;54.22;96873.75;4471836;32;33117;-67
2023/01/18 06:32:05;;;;;;;;;;;;;;;10.95;53.73;96855.19;4472076;31;34873;-68
2023/01/18 06:34:32;;;;;;;;;;;;;;;11.06;53.48;96835.12;4467131;32;35234;-67
2023/01/18 06:36:59;;;;;;;;;;;;;;;10.84;54.20;96798.63;4470063;32;35279;-68
2023/01/18 06:39:27;;;;;;;;;;;;;;;10.99;53.92;96810.13;4468557;31;34809;-67
2023/01/18 06:41:54;;;;;;;;;;;;;;;11.16;52.65;96829.47;4470854;32;34588;-66
2023/01/18 06:44:21;;;;;;;;;;;;;;;10.81;54.63;96836.47;4475127;32;34828;-67
2023/01/18 06:46:49;;;;;;;;;;;;;;;11.05;53.33;96875.47;4472368;32;35196;-68
2023/01/18 06:49:16;;;;;;;;;;;;;;;10.93;52.34;96893.84;4468169;32;34044;-68
2023/01/18 06:51:43;;;;;;;;;;;;;;;10.84;52.75;96902.97;4471987;31;34411;-67
2023/01/18 06:54:11;;;;;;;;;;;;;;;10.33;53.65;96918.91;4475889;32;34074;-67
2023/01/18 06:56:38;;;;;;;;;;;;;;;10.37;54.32;96913.03;4475735;31;35364;-68
2023/01/18 06:59:06;;;;;;;;;;;;;;;10.36;55.08;96911.34;4473311;32;35480;-69
2023/01/18 07:01:34;;;;;;;;;;;;;;;10.29;54.60;96947.03;4476877;31;32746;-68
2023/01/18 07:04:02;;;;;;;;;;;;;;;10.35;54.06;96967.69;4476145;32;34046;-68
2023/01/18 07:06:31;;;;;;;;;;;;;;;10.32;54.06;96968.88;4480500;32;34211;-67
2023/01/18 07:08:58;;;;;;;;;;;;;;;10.37;54.33;96952.28;4467951;32;34301;-68
2023/01/18 07:11:25;;;;;;;;;;;;;;;10.24;54.98;96947.53;4473419;32;33097;-68
2023/01/18 07:13:52;;;;;;;;;;;;;;;10.14;54.16;96952.28;4479147;32;33387;-68
2023/01/18 07:16:20;;;;;;;;;;;;;;;10.24;53.65;96963.56;4475354;31;33951;-68
2023/01/18 07:18:48;;;;;;;;;;;;;;;10.30;53.42;96978.09;4473907;32;33772;-66
2023/01/18 07:21:16;;;;;;;;;;;;;;;10.38;53.08;96991.41;4465468;32;33636;-67
2023/01/18 07:23:43;;;;;;;;;;;;;;;10.04;53.89;97001.47;4467238;31;34264;-66
2023/01/18 07:26:15;;;;;;;;;;;;;;;10.32;52.51;97008.97;4466800;32;35397;-66
2023/01/18 07:28:43;;;;;;;;;;;;;;;9.91;53.01;97019.94;4479625;32;34256;-66
2023/01/18 07:31:11;;;;;;;;;;;;;;;10.00;53.50;97018.88;4470765;32;33685;-68
2023/01/18 07:33:38;;;;;;;;;;;;;;;10.08;53.21;97022.50;4471492;31;33303;-67
2023/01/18 07:36:06;;;;;;;;;;;;;;;9.79;55.01;97018.66;4466761;32;34195;-66
2023/01/18 07:38:33;;;;;;;;;;;;;;;10.12;53.73;97010.44;4474711;32;34332;-65
2023/01/18 07:41:02;;;;;;;;;;;;;;;10.25;53.78;97011.50;4469741;32;33450;-66
2023/01/18 07:43:29;;;;;;;;;;;;;;;10.38;54.09;97010.12;4475807;32;32461;-66
2023/01/18 07:45:57;;;;;;;;;;;;;;;10.45;54.08;97011.88;4465755;32;34557;-65
2023/01/18 07:48:25;;;;;;;;;;;;;;;10.75;52.29;97019.94;4466324;32;34235;-66
2023/01/18 07:50:53;;;;;;;;;;;;;;;10.77;51.59;97036.66;4470409;32;34622;-66
2023/01/18 07:53:21;;;;;;;;;;;;;;;10.61;51.81;97055.53;4474082;32;36558;-65
2023/01/18 07:55:49;;;;;;;;;;;;;;;10.58;51.95;97061.25;4472916;32;34863;-66
2023/01/18 07:58:16;;;;;;;;;;;;;;;10.44;52.62;97062.88;4471241;32;33118;-66
2023/01/18 08:00:44;;;;;;;;;;;;;;;10.49;52.79;97063.97;4469595;32;32678;-65
2023/01/18 08:03:15;;;;;;;;;;;;;;;10.59;53.02;97082.44;4472934;32;34260;-66
2023/01/18 08:05:43;;;;;;;;;;;;;;;10.87;52.80;97090.75;4469017;31;35377;-66
2023/01/18 08:08:16;;;;;;;;;;;;;;;10.88;52.13;97102.28;4465140;32;35307;-66
2023/01/18 08:10:43;;;;;;;;;;;;;;;10.99;51.66;97104.53;4471753;32;34090;-65
2023/01/18 08:13:10;;;;;;;;;;;;;;;11.04;51.93;97103.97;4469302;32;35087;-66
2023/01/18 08:15:39;;;;;;;;;;;;;;;10.85;53.13;97098.16;4470442;32;35371;-67
2023/01/18 08:18:07;;;;;;;;;;;;;;;10.70;54.10;97107.97;4469126;32;34569;-66
2023/01/18 08:20:34;;;;;;;;;;;;;;;10.41;54.29;97114.03;4473390;32;33452;-65
2023/01/18 08:23:02;;;;;;;;;;;;;;;10.76;54.31;97120.63;4474465;32;34934;-65
2023/01/18 08:25:32;;;;;;;;;;;;;;;10.90;53.11;97133.19;4474017;31;35408;-66
2023/01/18 08:28:00;;;;;;;;;;;;;;;10.72;53.59;97146.91;4472205;32;34234;-68
2023/01/18 08:30:29;;;;;;;;;;;;;;;10.16;55.07;97140.88;4475400;32;33276;-66
2023/01/18 08:32:57;;;;;;;;;;;;;;;10.05;55.45;97138.62;4472137;32;34262;-66
2023/01/18 08:35:28;;;;;;;;;;;;;;;10.12;56.09;97130.72;4468780;31;34211;-69
2023/01/18 08:37:57;;;;;;;;;;;;;;;10.50;55.89;97129.00;4480477;32;34625;-67
2023/01/18 08:40:24;;;;;;;;;;;;;;;10.69;55.75;97130.38;4480078;32;33751;-67
2023/01/18 08:42:58;;;;;;;;;;;;;;;10.75;54.95;97129.63;4462642;32;35233;-66
2023/01/18 08:45:26;;;;;;;;;;;;;;;11.03;54.78;97142.47;4468983;31;34033;-65
2023/01/18 08:47:57;;;;;;;;;;;;;;;11.12;54.33;97146.75;4476990;31;35472;-64
2023/01/18 08:50:24;;;;;;;;;;;;;;;11.55;53.56;97146.97;4479568;32;32089;-65
2023/01/18 08:52:52;;;;;;;;;;;;;;;11.68;51.63;97154.38;4470713;31;32770;-64
2023/01/18 08:55:20;;;;;;;;;;;;;;;11.65;51.57;97160.91;4478688;32;34241;-67
2023/01/18 08:57:48;;;;;;;;;;;;;;;11.93;50.59;97169.16;4472970;32;35068;-65
2023/01/18 09:00:16;;;;;;;;;;;;;;;12.09;49.78;97181.56;4470285;32;33687;-65
2023/01/18 09:02:43;;;;;;;;;;;;;;;12.03;49.87;97193.00;4477200;32;34237;-69
2023/01/18 09:05:10;;;;;;;;;;;;;;;11.61;50.51;97186.41;4468774;32;34319;-67
2023/01/18 09:07:38;;;;;;;;;;;;;;;11.92;49.64;97204.22;4475447;32;33996;-66
2023/01/18 09:10:07;;;;;;;;;;;;;;;11.47;51.76;97216.72;4481431;32;33631;-65
2023/01/18 09:12:34;;;;;;;;;;;;;;;11.52;52.30;97225.84;4481813;32;34302;-67
2023/01/18 09:15:02;;;;;;;;;;;;;;;11.69;52.87;97244.47;4478367;31;34294;-65
2023/01/18 09:17:29;;;;;;;;;;;;;;;12.16;51.12;97267.44;4476841;31;35053;-66
2023/01/18 09:19:58;;;;;;;;;;;;;;;11.78;51.11;97273.69;4471061;31;33280;-66
2023/01/18 09:22:25;;;;;;;;;;;;;;;10.65;54.40;97287.72;4475398;32;35049;-67
2023/01/18 09:24:52;;;;;;;;;;;;;;;10.19;55.96;97292.88;4478826;32;32802;-68
2023/01/18 09:27:20;;;;;;;;;;;;;;;9.49;58.01;97306.84;4472197;32;34269;-65
2023/01/18 09:29:51;;;;;;;;;;;;;;;9.82;58.17;97306.81;4476575;31;33530;-68
2023/01/18 09:32:18;;;;;;;;;;;;;;;9.75;57.83;97319.19;4471330;31;33952;-67
2023/01/18 09:34:49;;;;;;;;;;;;;;;9.98;57.51;97328.19;4469517;32;34554;-65
2023/01/18 09:37:17;;;;;;;;;;;;;;;9.55;58.99;97330.22;4468475;32;34047;-65
2023/01/18 09:39:45;;;;;;;;;;;;;;;9.08;61.00;97333.53;4469882;32;33297;-65
2023/01/18 09:42:23;;;;;;;;;;;;;;;9.30;60.56;97331.22;4476421;32;33753;-66
2023/01/18 09:44:51;;;;;;;;;;;;;;;8.85;61.54;97346.63;4476829;31;34122;-67
2023/01/18 09:47:22;;;;;;;;;;;;;;;8.37;63.33;97352.59;4459336;32;34757;-66
2023/01/18 09:49:56;;;;;;;;;;;;;;;8.36;63.69;97361.59;4480964;32;33438;-65
2023/01/18 09:52:27;;;;;;;;;;;;;;;8.35;63.66;97354.59;4476774;32;34160;-63
2023/01/18 09:55:00;;;;;;;;;;;;;;;8.34;64.61;97364.41;4470761;31;34287;-66
2023/01/18 09:57:43;;;;;;;;;;;;;;;8.47;64.44;97348.00;4470249;32;33971;-66
2023/01/18 10:00:23;;;;;;;;;;;;;;;8.50;64.14;97357.50;4468945;31;33399;-64
2023/01/18 10:02:52;;;;;;;;;;;;;;;8.73;63.04;97350.63;4477120;32;35129;-65
2023/01/18 10:05:20;;;;;;;;;;;;;;;8.62;63.45;97354.41;4460761;32;34293;-66
2023/01/18 10:08:01;;;;;;;;;;;;;;;9.38;61.89;97363.28;4458355;32;33966;-67
2023/01/18 10:10:34;;;;;;;;;;;;;;;9.29;62.08;97365.09;4473932;32;32970;-69
2023/01/18 10:13:22;;;;;;;;;;;;;;;8.57;63.22;97370.06;4460590;32;34191;-68
2023/01/18 10:15:49;;;;;;;;;;;;;;;9.60;61.48;97382.28;4473346;32;34758;-67
2023/01/18 10:18:17;;;;;;;;;;;;;;;10.23;58.70;97390.44;4477434;31;34152;-67
2023/01/18 10:20:46;;;;;;;;;;;;;;;10.86;57.44;97396.81;4460107;32;33016;-69
2023/01/18 10:23:29;;;;;;;;;;;;;;;11.54;54.82;97406.00;4473538;32;35566;-65
2023/01/18 10:26:06;;;;;;;;;;;;;;;12.07;53.63;97396.25;4466931;32;34432;-69
2023/01/18 10:28:52;;;;;;;;;;;;;;;12.08;52.56;97389.03;4480125;32;34677;-66
2023/01/18 10:31:25;;;;;;;;;;;;;;;13.19;50.52;97390.81;4454306;32;33603;-66
2023/01/18 10:33:54;;;;;;;;;;;;;;;14.43;47.68;97394.03;4469020;32;34331;-67
2023/01/18 10:36:23;;;;;;;;;;;;;;;15.17;45.41;97394.50;4455232;32;35235;-67
2023/01/18 10:38:51;;;;;;;;;;;;;;;16.19;42.05;97393.50;4460136;31;34372;-67
2023/01/18 10:41:19;;;;;;;;;;;;;;;17.11;40.65;97408.75;4477379;32;32671;-69
2023/01/18 10:43:46;;;;;;;;;;;;;;;17.82;38.77;97415.09;4475973;32;35372;-67
2023/01/18 10:46:14;;;;;;;;;;;;;;;16.98;39.09;97424.97;4472582;31;35623;-66
2023/01/18 10:48:44;;;;;;;;;;;;;;;17.87;37.42;97424.22;4468719;32;32702;-67
2023/01/18 10:51:23;;;;;;;;;;;;;;;16.81;39.06;97445.41;4468897;32;34490;-67
2023/01/18 10:53:50;;;;;;;;;;;;;;;16.03;40.81;97454.09;4476066;32;33969;-67
2023/01/18 10:56:19;;;;;;;;;;;;;;;15.14;42.24;97463.91;4470667;32;35195;-68
2023/01/18 10:58:49;;;;;;;;;;;;;;;14.00;44.53;97465.91;4457452;32;35126;-67
2023/01/18 11:01:21;;;;;;;;;;;;;;;13.66;45.91;97483.53;4475720;31;33568;-68
2023/01/18 11:03:49;;;;;;;;;;;;;;;12.27;49.84;97489.59;4457418;32;34048;-66
2023/01/18 11:06:19;;;;;;;;;;;;;;;12.65;49.31;97477.00;4477691;32;34608;-67
2023/01/18 11:08:47;;;;;;;;;;;;;;;11.57;51.66;97485.19;4476659;31;34697;-67
2023/01/18 11:12:32;;;;;;;;;;;;;;;11.88;51.07;97485.19;4456950;32;33495;-67
2023/01/18 11:14:30;;;;;;;;;;;;;;;11.88;51.51;97487.88;4471886;32;34060;-67
2023/01/18 11:17:10;;;;;;;;;;;;;;;12.66;50.73;97496.62;4476728;32;34358;-69
2023/01/18 11:19:38;;;;;;;;;;;;;;;12.33;49.96;97511.16;4468903;32;35525;-68
2023/01/18 11:22:11;;;;;;;;;;;;;;;11.79;51.87;97518.38;4471455;31;33246;-67
2023/01/18 11:24:39;;;;;;;;;;;;;;;12.01;51.36;97525.66;4454864;32;33580;-67
2023/01/18 11:27:10;;;;;;;;;;;;;;;11.42;51.85;97518.06;4456843;32;34233;-68
2023/01/18 11:29:41;;;;;;;;;;;;;;;11.54;51.88;97523.87;4471407;32;34823;-68
2023/01/18 11:32:16;;;;;;;;;;;;;;;11.21;53.08;97531.22;4457899;32;33345;-66
2023/01/18 11:34:47;;;;;;;;;;;;;;;11.30;53.07;97537.34;4460699;32;34162;-66
2023/01/18 11:37:34;;;;;;;;;;;;;;;11.50;52.64;97540.47;4477982;31;34350;-67
2023/01/18 11:40:22;;;;;;;;;;;;;;;11.62;51.59;97542.59;4468661;32;34294;-66
2023/01/18 11:42:50;;;;;;;;;;;;;;;10.96;53.08;97541.97;4460909;32;33516;-67
2023/01/18 11:45:29;;;;;;;;;;;;;;;11.16;53.10;97546.94;4454518;32;34030;-69
2023/01/18 11:48:11;;;;;;;;;;;;;;;10.99;53.36;97556.03;4480907;32;34279;-68
2023/01/18 11:51:06;;;;;;;;;;;;;;;10.92;53.16;97551.34;4458297;32;34321;-68
2023/01/18 11:53:40;;;;;;;;;;;;;;;10.58;54.34;97569.44;4469321;32;33567;-69
2023/01/18 11:56:26;;;;;;;;;;;;;;;10.62;54.16;97573.47;4467518;32;34399;-68
2023/01/18 11:58:54;;;;;;;;;;;;;;;11.00;53.44;97571.06;4475744;31;35571;-67
2023/01/18 12:01:36;;;;;;;;;;;;;;;10.90;54.21;97573.94;4468949;32;34171;-67
2023/01/18 12:04:13;;;;;;;;;;;;;;;10.76;53.26;97583.50;4476240;31;33645;-67
2023/01/18 12:06:44;;;;;;;;;;;;;;;10.55;53.69;97592.03;4464400;32;33973;-69
2023/01/18 12:09:22;;;;;;;;;;;;;;;10.67;54.08;97601.38;4466123;32;34467;-68
2023/01/18 12:11:51;;;;;;;;;;;;;;;10.77;54.15;97598.53;4478539;31;34442;-69
2023/01/18 12:14:22;;;;;;;;;;;;;;;10.29;54.59;97597.53;4469567;31;32465;-66
2023/01/18 12:17:00;;;;;;;;;;;;;;;11.39;51.95;97604.09;4475698;32;33421;-67
2023/01/18 12:19:34;;;;;;;;;;;;;;;11.46;52.01;97614.13;4456655;32;35400;-69
2023/01/18 12:22:30;;;;;;;;;;;;;;;10.24;53.62;97624.72;4470628;32;33989;-66
2023/01/18 12:25:17;;;;;;;;;;;;;;;10.14;55.25;97628.53;4407178;32;34035;-68
2023/01/18 12:27:50;;;;;;;;;;;;;;;10.79;53.88;97627.81;4474114;32;34974;-66
2023/01/18 12:30:21;;;;;;;;;;;;;;;11.45;52.51;97631.22;4459258;32;34258;-67
2023/01/18 12:32:54;;;;;;;;;;;;;;;11.61;51.84;97625.81;4471436;32;33478;-67
2023/01/18 12:35:33;;;;;;;;;;;;;;;11.61;52.91;97631.16;4470862;32;31969;-67
2023/01/18 12:38:04;;;;;;;;;;;;;;;11.30;52.72;97633.75;4453246;32;35120;-67
2023/01/18 12:40:46;;;;;;;;;;;;;;;11.47;51.35;97647.97;4480543;32;34240;-68
2023/01/18 12:43:26;;;;;;;;;;;;;;;11.39;51.11;97660.34;4470658;32;35388;-67
2023/01/18 12:46:14;;;;;;;;;;;;;;;11.42;50.70;97653.81;4455972;32;32761;-67
2023/01/18 12:48:49;;;;;;;;;;;;;;;11.66;50.66;97656.44;4466900;32;34942;-67
2023/01/18 12:51:17;;;;;;;;;;;;;;;12.20;50.00;97655.75;4474874;32;34070;-66
2023/01/18 12:53:46;;;;;;;;;;;;;;;12.07;50.29;97650.97;4469113;32;34385;-67
2023/01/18 12:56:15;;;;;;;;;;;;;;;12.12;49.33;97656.62;4455113;32;33007;-68
2023/01/18 12:58:43;;;;;;;;;;;;;;;12.14;50.00;97663.66;4472366;32;35385;-67
2023/01/18 13:01:11;;;;;;;;;;;;;;;12.52;50.40;97669.97;4453857;32;34350;-67
2023/01/18 13:03:42;;;;;;;;;;;;;;;12.35;51.04;97679.97;4458260;32;34195;-68
2023/01/18 13:06:10;;;;;;;;;;;;;;;12.66;49.30;97692.53;4456779;32;32886;-66
2023/01/18 13:09:06;;;;;;;;;;;;;;;12.48;49.49;97700.84;4474632;32;34155;-67
2023/01/18 13:11:40;;;;;;;;;;;;;;;12.33;49.45;97706.16;4454005;32;33606;-67
2023/01/18 13:14:10;;;;;;;;;;;;;;;12.61;48.39;97697.59;4471278;32;34742;-68
2023/01/18 13:16:44;;;;;;;;;;;;;;;12.75;47.88;97700.34;4470233;32;32318;-66
2023/01/18 13:19:12;;;;;;;;;;;;;;;12.86;47.72;97704.47;4463002;32;34150;-66
2023/01/18 13:21:53;;;;;;;;;;;;;;;12.97;47.27;97711.25;4457934;32;34280;-66
2023/01/18 13:24:39;;;;;;;;;;;;;;;12.49;48.03;97726.69;4460512;32;34023;-66
2023/01/18 13:27:10;;;;;;;;;;;;;;;11.74;50.93;97744.00;4468171;32;34917;-67
2023/01/18 13:29:38;;;;;;;;;;;;;;;11.41;52.02;97748.59;4462648;32;34435;-68
2023/01/18 13:32:26;;;;;;;;;;;;;;;10.90;53.26;97748.72;4474316;32;34328;-65
2023/01/18 13:34:55;;;;;;;;;;;;;;;11.46;51.91;97740.91;4478105;32;35070;-67